Portland, Maine
Current Conditions -  °F | °C
As of 9:51 AM on Wednesday 22 Oct 2014 (Local Time) from KPWM Reporting Station
Light Rain Light Rain  
Wind Chill: 43°   Ceiling: 900
Heat Index: 49°   Visibility: 1.7mi
Dew Point: 46°   Wind: 15mph
Humidity: 90%   Direction: 10°N
Pressure: 30.12"   Gusts: 20mph
Location:  43.66°N, 70.26°W
Report Text: KPWM 221351Z 01013G17KT 1 3/4SM -RA BR BKN009 OVC013 09/08 A3012 RMK AO2 RAB1253 SLP201 P0005 T00940078
Loading
Personal Weather Stations






























Interactive Weather Map New forecast layout! Learn more

10-Day Weather Forecast

Advertisements
Track Severe Weather on mobile